Time;durP1;ratioP1;P1;durP2;ratioP2;P2;SDS_P1;SDS_P2;PMS_P1;PMS_P2;Temp;Humidity;BMP_temperature;BMP_pressure;BME280_temperature;BME280_humidity;BME280_pressure;Samples;Min_cycle;Max_cycle;Signal;HPM_P1;HPM_P2
2022/05/06 00:02:18;;;;;;;0.60;0.60;;;11.50;99.90;;;;;;5072093;28;20196;-74
2022/05/06 00:04:44;;;;;;;0.60;0.60;;;11.50;99.90;;;;;;5072121;28;20387;-74
2022/05/06 00:07:12;;;;;;;0.60;0.60;;;11.40;99.90;;;;;;5071975;28;20174;-73
2022/05/06 00:09:44;;;;;;;0.50;0.50;;;11.50;99.90;;;;;;5071335;28;20167;-74
2022/05/06 00:12:12;;;;;;;0.60;0.60;;;11.50;99.90;;;;;;5071505;28;20209;-74
2022/05/06 00:14:39;;;;;;;0.70;0.70;;;11.50;99.90;;;;;;5071566;28;20182;-74
2022/05/06 00:17:06;;;;;;;0.60;0.60;;;11.50;99.90;;;;;;5071662;28;20650;-74
2022/05/06 00:19:32;;;;;;;0.60;0.60;;;11.60;99.90;;;;;;5071144;28;20241;-74
2022/05/06 00:21:58;;;;;;;0.60;0.60;;;11.50;99.90;;;;;;5071479;28;20198;-74
2022/05/06 00:24:23;;;;;;;0.60;0.60;;;11.40;99.90;;;;;;5071531;28;20269;-74
2022/05/06 00:26:49;;;;;;;0.60;0.60;;;11.50;99.90;;;;;;5071494;28;20312;-74
2022/05/06 00:29:14;;;;;;;0.50;0.50;;;11.50;99.90;;;;;;5071190;28;20209;-74
2022/05/06 00:31:40;;;;;;;0.50;0.50;;;11.50;99.90;;;;;;5071594;28;20230;-74
2022/05/06 00:34:06;;;;;;;0.60;0.60;;;11.60;99.90;;;;;;5071409;28;20296;-74
2022/05/06 00:36:31;;;;;;;0.60;0.60;;;11.60;99.90;;;;;;5071569;28;20182;-74
2022/05/06 00:38:57;;;;;;;0.60;0.60;;;11.50;99.90;;;;;;5070881;28;20702;-74
2022/05/06 00:41:22;;;;;;;0.63;0.63;;;11.60;99.90;;;;;;5071240;28;20218;-74
2022/05/06 00:43:48;;;;;;;0.53;0.53;;;11.50;99.90;;;;;;5071719;28;20259;-75
2022/05/06 00:46:15;;;;;;;0.60;0.60;;;11.50;99.90;;;;;;5071488;28;20178;-75
2022/05/06 00:48:44;;;;;;;0.50;0.50;;;11.50;99.90;;;;;;5071281;28;20189;-75
2022/05/06 00:51:10;;;;;;;0.60;0.60;;;11.50;99.90;;;;;;5070641;28;20187;-76
2022/05/06 00:53:36;;;;;;;0.50;0.50;;;11.50;99.90;;;;;;5071131;28;20659;-75
2022/05/06 00:56:04;;;;;;;0.70;0.70;;;11.30;99.90;;;;;;5071122;28;20178;-74
2022/05/06 00:58:31;;;;;;;0.60;0.60;;;11.20;99.90;;;;;;5070939;28;20640;-76
2022/05/06 01:00:57;;;;;;;0.70;0.70;;;11.20;99.90;;;;;;5070253;28;20217;-75
2022/05/06 01:03:22;;;;;;;0.60;0.60;;;11.30;99.90;;;;;;5070994;28;20527;-75
2022/05/06 01:05:51;;;;;;;0.50;0.50;;;11.40;99.90;;;;;;5071092;28;20170;-76
2022/05/06 01:08:16;;;;;;;0.60;0.60;;;11.40;99.90;;;;;;5070887;28;20520;-76
2022/05/06 01:10:43;;;;;;;0.60;0.60;;;11.40;99.90;;;;;;5070334;28;20644;-76
2022/05/06 01:13:09;;;;;;;0.60;0.60;;;11.40;99.90;;;;;;5070999;28;20178;-74
2022/05/06 01:15:34;;;;;;;0.60;0.60;;;11.40;99.90;;;;;;5070842;28;20323;-75
2022/05/06 01:18:00;;;;;;;0.60;0.60;;;11.40;99.90;;;;;;5070820;28;20221;-75
2022/05/06 01:20:26;;;;;;;0.63;0.63;;;11.50;99.90;;;;;;5070228;28;20167;-76
2022/05/06 01:22:54;;;;;;;0.60;0.60;;;11.40;99.90;;;;;;5070647;28;20179;-75
2022/05/06 01:25:20;;;;;;;0.67;0.67;;;11.40;99.90;;;;;;5069761;28;20853;-74
2022/05/06 01:28:03;;;;;;;0.57;0.57;;;11.50;99.90;;;;;;5070803;28;20202;-75
2022/05/06 01:30:42;;;;;;;0.50;0.50;;;11.40;99.90;;;;;;5070315;28;20198;-75
2022/05/06 01:33:09;;;;;;;0.50;0.50;;;11.40;99.90;;;;;;5070626;28;20182;-76
2022/05/06 01:35:44;;;;;;;0.60;0.60;;;11.40;99.90;;;;;;5070687;28;20724;-77
2022/05/06 01:38:12;;;;;;;0.50;0.50;;;11.30;99.90;;;;;;5070684;28;20218;-76
2022/05/06 01:40:48;;;;;;;0.60;0.60;;;11.40;99.90;;;;;;5070058;28;20193;-76
2022/05/06 01:43:16;;;;;;;0.70;0.70;;;11.40;99.90;;;;;;5070516;28;20658;-75
2022/05/06 01:45:44;;;;;;;0.60;0.60;;;11.60;99.90;;;;;;5070394;28;20600;-76
2022/05/06 01:48:11;;;;;;;0.70;0.70;;;11.60;99.90;;;;;;5070373;28;20213;-76
2022/05/06 01:50:38;;;;;;;0.50;0.50;;;11.60;99.90;;;;;;5070245;28;20190;-76
2022/05/06 01:53:03;;;;;;;0.50;0.50;;;11.70;99.90;;;;;;5070546;28;20196;-75
2022/05/06 01:55:29;;;;;;;0.60;0.60;;;11.60;99.90;;;;;;5069119;28;20331;-74
2022/05/06 01:57:55;;;;;;;0.60;0.60;;;11.60;99.90;;;;;;5070434;28;20611;-75
2022/05/06 02:00:21;;;;;;;0.60;0.60;;;11.60;99.90;;;;;;5069700;28;20201;-76
2022/05/06 02:02:46;;;;;;;0.53;0.53;;;11.60;99.90;;;;;;5070450;28;20179;-75
2022/05/06 02:05:17;;;;;;;0.60;0.60;;;11.60;99.90;;;;;;5070556;28;20183;-75
2022/05/06 02:07:50;;;;;;;0.60;0.60;;;11.60;99.90;;;;;;5070577;28;20258;-75
2022/05/06 02:10:16;;;;;;;0.60;0.60;;;11.60;99.90;;;;;;5069760;28;20175;-76
2022/05/06 02:12:42;;;;;;;0.60;0.60;;;11.60;99.90;;;;;;5070290;28;20174;-76
2022/05/06 02:15:10;;;;;;;0.60;0.60;;;11.60;99.90;;;;;;5070316;28;20316;-76
2022/05/06 02:17:38;;;;;;;0.70;0.70;;;11.60;99.90;;;;;;5070287;28;20215;-76
2022/05/06 02:20:05;;;;;;;0.60;0.60;;;11.60;99.90;;;;;;5069882;28;20197;-74
2022/05/06 02:22:31;;;;;;;0.57;0.57;;;11.60;99.90;;;;;;5070198;28;20198;-75
2022/05/06 02:24:57;;;;;;;0.50;0.50;;;11.60;99.90;;;;;;5070263;28;20538;-76
2022/05/06 02:27:23;;;;;;;0.60;0.60;;;11.60;99.90;;;;;;5070268;28;20178;-75
2022/05/06 02:35:16;;;;;;;0.60;0.60;;;11.50;99.90;;;;;;5070211;28;20603;-75
2022/05/06 02:37:42;;;;;;;0.60;0.60;;;11.50;99.90;;;;;;5071988;28;20218;-76
2022/05/06 02:40:09;;;;;;;0.73;0.73;;;11.50;99.90;;;;;;5072974;28;20179;-76
2022/05/06 02:42:35;;;;;;;0.60;0.60;;;11.50;99.90;;;;;;5073789;28;20274;-76
2022/05/06 02:45:00;;;;;;;0.67;0.67;;;11.50;99.90;;;;;;5073683;28;20699;-77
2022/05/06 02:47:26;;;;;;;0.60;0.60;;;11.40;99.90;;;;;;5073645;28;20171;-75
2022/05/06 02:49:52;;;;;;;0.53;0.53;;;11.40;99.90;;;;;;5073000;28;20210;-76
2022/05/06 02:52:18;;;;;;;0.50;0.50;;;11.30;99.90;;;;;;5073354;28;20225;-76
2022/05/06 02:54:44;;;;;;;0.53;0.53;;;11.30;99.90;;;;;;5073238;28;20209;-76
2022/05/06 02:57:10;;;;;;;0.60;0.60;;;11.30;99.90;;;;;;5073365;28;20187;-76
2022/05/06 02:59:36;;;;;;;0.70;0.70;;;11.30;99.90;;;;;;5072579;28;20218;-76
2022/05/06 03:02:02;;;;;;;0.60;0.60;;;11.30;99.90;;;;;;5073042;28;20224;-76
2022/05/06 03:04:28;;;;;;;0.60;0.60;;;11.30;99.90;;;;;;5073025;28;20178;-77
2022/05/06 03:06:53;;;;;;;0.60;0.60;;;11.30;99.90;;;;;;5073227;28;20186;-74
2022/05/06 03:09:19;;;;;;;0.70;0.70;;;11.40;99.90;;;;;;5072544;28;20170;-75
2022/05/06 03:11:45;;;;;;;0.60;0.60;;;11.40;99.90;;;;;;5073029;28;20194;-76
2022/05/06 03:14:11;;;;;;;0.63;0.63;;;11.40;99.90;;;;;;5073151;28;20179;-76
2022/05/06 03:16:36;;;;;;;0.60;0.60;;;11.40;99.90;;;;;;5072862;28;20248;-75
2022/05/06 03:19:02;;;;;;;0.60;0.60;;;11.40;99.90;;;;;;5072332;28;20221;-75
2022/05/06 03:21:28;;;;;;;0.60;0.60;;;11.40;99.90;;;;;;5072793;28;20740;-75
2022/05/06 03:23:54;;;;;;;0.60;0.60;;;11.50;99.90;;;;;;5072754;28;20174;-75
2022/05/06 03:26:19;;;;;;;0.50;0.50;;;11.50;99.90;;;;;;5073071;28;20167;-75
2022/05/06 03:28:46;;;;;;;0.60;0.60;;;11.50;99.90;;;;;;5072941;28;20670;-75
2022/05/06 03:31:14;;;;;;;0.57;0.57;;;11.50;99.90;;;;;;5072155;28;20698;-75
2022/05/06 03:33:42;;;;;;;0.60;0.60;;;11.50;99.90;;;;;;5072816;28;20202;-75
2022/05/06 03:36:10;;;;;;;0.60;0.60;;;11.50;99.90;;;;;;5072922;28;20186;-74
2022/05/06 03:38:36;;;;;;;0.60;0.60;;;11.40;99.90;;;;;;5072288;28;20214;-74
2022/05/06 03:41:01;;;;;;;0.60;0.60;;;11.40;99.90;;;;;;5071990;28;20720;-75
2022/05/06 03:43:27;;;;;;;0.60;0.60;;;11.40;99.90;;;;;;5072589;28;20178;-75
2022/05/06 03:45:53;;;;;;;0.60;0.60;;;11.40;99.90;;;;;;5072223;28;20883;-75
2022/05/06 03:48:24;;;;;;;0.70;0.70;;;11.40;99.90;;;;;;5071712;28;20213;-75
2022/05/06 03:53:34;;;;;;;0.50;0.50;;;11.40;99.90;;;;;;5072292;28;20581;-76
2022/05/06 03:56:00;;;;;;;0.50;0.50;;;11.30;99.90;;;;;;5072159;28;20214;-76
2022/05/06 03:58:26;;;;;;;0.60;0.60;;;11.30;99.90;;;;;;5072342;28;20217;-75
2022/05/06 04:00:52;;;;;;;0.60;0.60;;;11.30;99.90;;;;;;5072288;28;20218;-78
2022/05/06 04:03:18;;;;;;;0.50;0.50;;;11.20;99.90;;;;;;5073023;28;20631;-77
2022/05/06 04:05:44;;;;;;;0.50;0.50;;;11.20;99.90;;;;;;5073144;28;20179;-77
2022/05/06 04:08:10;;;;;;;0.60;0.60;;;11.30;99.90;;;;;;5072822;28;20189;-77
2022/05/06 04:10:35;;;;;;;0.50;0.50;;;11.30;99.90;;;;;;5072673;28;20243;-75
2022/05/06 04:13:02;;;;;;;0.50;0.50;;;11.30;99.90;;;;;;5072664;28;20671;-74
2022/05/06 04:15:28;;;;;;;0.60;0.60;;;11.20;99.90;;;;;;5072834;28;20243;-75
2022/05/06 04:17:54;;;;;;;0.70;0.70;;;11.30;99.90;;;;;;5072340;28;20695;-75
2022/05/06 04:25:47;;;;;;;0.70;0.70;;;11.30;99.90;;;;;;5072254;28;20178;-75
2022/05/06 04:28:13;;;;;;;0.50;0.50;;;11.30;99.90;;;;;;5071697;28;20178;-74
2022/05/06 04:30:38;;;;;;;0.50;0.50;;;11.30;99.90;;;;;;5071882;28;20663;-75
2022/05/06 04:33:04;;;;;;;0.50;0.50;;;11.30;99.90;;;;;;5072585;28;20209;-75
2022/05/06 04:35:30;;;;;;;0.70;0.70;;;11.30;99.90;;;;;;5072467;28;20190;-75
2022/05/06 04:37:55;;;;;;;0.63;0.63;;;11.40;99.90;;;;;;5071946;28;20260;-75
2022/05/06 04:40:21;;;;;;;0.60;0.60;;;11.40;99.90;;;;;;5071982;28;20175;-75
2022/05/06 04:42:46;;;;;;;0.60;0.60;;;11.40;99.90;;;;;;5072253;28;20265;-75
2022/05/06 04:45:12;;;;;;;0.50;0.50;;;11.40;99.90;;;;;;5072234;28;20175;-75
2022/05/06 04:47:38;;;;;;;0.60;0.60;;;11.40;99.90;;;;;;5072361;28;20181;-74
2022/05/06 04:50:05;;;;;;;0.50;0.50;;;11.40;99.90;;;;;;5071667;28;20199;-74
2022/05/06 04:52:32;;;;;;;0.60;0.60;;;11.50;99.90;;;;;;5072156;28;20225;-75
2022/05/06 04:54:57;;;;;;;0.50;0.50;;;11.40;99.90;;;;;;5071958;28;20186;-74
2022/05/06 04:57:23;;;;;;;0.53;0.53;;;11.40;99.90;;;;;;5072052;28;20179;-74
2022/05/06 04:59:48;;;;;;;0.50;0.50;;;11.40;99.90;;;;;;5071383;28;20214;-74
2022/05/06 05:02:17;;;;;;;0.50;0.50;;;11.40;99.90;;;;;;5071495;28;20202;-74
2022/05/06 05:04:44;;;;;;;0.60;0.60;;;11.40;99.90;;;;;;5071817;28;20188;-75
2022/05/06 05:07:10;;;;;;;0.60;0.60;;;11.40;99.90;;;;;;5071947;28;20170;-75
2022/05/06 05:09:36;;;;;;;0.50;0.50;;;11.40;99.90;;;;;;5071593;28;20709;-75
2022/05/06 05:12:02;;;;;;;0.50;0.50;;;11.40;99.90;;;;;;5071677;28;20615;-75
2022/05/06 05:14:27;;;;;;;0.50;0.50;;;11.40;99.90;;;;;;5071606;28;20182;-75
2022/05/06 05:16:53;;;;;;;0.50;0.50;;;11.40;99.90;;;;;;5071889;28;20181;-74
2022/05/06 05:19:18;;;;;;;0.50;0.50;;;11.40;99.90;;;;;;5071215;28;20217;-74
2022/05/06 05:21:44;;;;;;;0.67;0.67;;;11.50;99.90;;;;;;5071563;28;20198;-74
2022/05/06 05:24:09;;;;;;;0.60;0.60;;;11.40;99.90;;;;;;5071800;28;20174;-75
2022/05/06 05:26:35;;;;;;;0.60;0.60;;;11.40;99.90;;;;;;5071637;28;20181;-75
2022/05/06 05:29:01;;;;;;;0.60;0.60;;;11.50;99.90;;;;;;5070960;28;20299;-74
2022/05/06 05:31:26;;;;;;;0.60;0.60;;;11.50;99.90;;;;;;5071908;28;20194;-76
2022/05/06 05:33:52;;;;;;;0.50;0.50;;;11.50;99.90;;;;;;5071480;28;20212;-74
2022/05/06 05:36:18;;;;;;;0.63;0.63;;;11.50;99.90;;;;;;5071917;28;20178;-76
2022/05/06 05:38:44;;;;;;;0.60;0.60;;;11.60;99.90;;;;;;5069891;28;20210;-75
2022/05/06 05:41:09;;;;;;;0.70;0.70;;;11.70;99.90;;;;;;5070398;28;20209;-76
2022/05/06 05:49:03;;;;;;;0.67;0.67;;;11.60;99.90;;;;;;5070646;28;20185;-76
2022/05/06 05:51:29;;;;;;;0.57;0.57;;;11.60;99.90;;;;;;5068401;28;20190;-74
2022/05/06 05:53:55;;;;;;;0.50;0.50;;;11.70;99.90;;;;;;5071146;28;20207;-74
2022/05/06 05:56:20;;;;;;;0.60;0.60;;;11.70;99.90;;;;;;5071480;28;20182;-76
2022/05/06 05:58:46;;;;;;;0.60;0.60;;;11.70;99.90;;;;;;5071371;28;20239;-75
2022/05/06 06:01:11;;;;;;;0.60;0.60;;;11.70;99.90;;;;;;5070535;28;20210;-76
2022/05/06 06:03:37;;;;;;;0.50;0.50;;;11.60;99.90;;;;;;5070932;28;20216;-75
2022/05/06 06:06:03;;;;;;;0.60;0.60;;;11.50;99.90;;;;;;5069637;28;20182;-74
2022/05/06 06:08:28;;;;;;;0.60;0.60;;;11.50;99.90;;;;;;5068002;28;20180;-74
2022/05/06 06:10:54;;;;;;;0.50;0.50;;;12.00;99.90;;;;;;5062252;28;20219;-75
2022/05/06 06:13:20;;;;;;;0.50;0.50;;;11.70;99.90;;;;;;5065823;28;20171;-75
2022/05/06 06:15:45;;;;;;;0.60;0.60;;;11.60;99.90;;;;;;5074086;28;20265;-74
2022/05/06 06:18:11;;;;;;;0.60;0.60;;;11.50;99.90;;;;;;5074343;28;20252;-74
2022/05/06 06:20:39;;;;;;;0.60;0.60;;;11.40;99.90;;;;;;5073980;28;20190;-74
2022/05/06 06:23:05;;;;;;;0.50;0.50;;;11.40;99.90;;;;;;5071512;28;20178;-74
2022/05/06 06:25:31;;;;;;;0.70;0.70;;;11.40;99.90;;;;;;5072010;28;20248;-75
2022/05/06 06:27:56;;;;;;;0.50;0.50;;;11.40;99.90;;;;;;5071032;28;20629;-75
2022/05/06 06:30:23;;;;;;;0.70;0.70;;;11.50;99.90;;;;;;5072308;28;20178;-81
2022/05/06 06:32:50;;;;;;;0.50;0.50;;;11.60;99.90;;;;;;5072525;28;20317;-75
2022/05/06 06:35:16;;;;;;;0.60;0.60;;;11.60;99.90;;;;;;5072298;28;20632;-76
2022/05/06 06:37:42;;;;;;;0.50;0.50;;;11.50;99.90;;;;;;5073210;28;20174;-75
2022/05/06 06:40:08;;;;;;;0.57;0.57;;;11.60;99.90;;;;;;5073831;28;20170;-77
2022/05/06 06:42:34;;;;;;;0.60;0.60;;;11.50;99.90;;;;;;5074328;28;20773;-75
2022/05/06 06:44:59;;;;;;;0.60;0.60;;;11.60;99.90;;;;;;5073830;28;20715;-74
2022/05/06 06:47:25;;;;;;;0.50;0.50;;;11.80;99.90;;;;;;5074517;28;20183;-74
2022/05/06 06:49:50;;;;;;;0.70;0.70;;;11.80;99.90;;;;;;5071007;28;20179;-77
2022/05/06 06:52:16;;;;;;;0.50;0.50;;;11.80;99.90;;;;;;5058706;28;20183;-74
2022/05/06 06:54:41;;;;;;;0.50;0.50;;;11.70;99.90;;;;;;5067320;28;20647;-76
2022/05/06 06:57:07;;;;;;;0.60;0.60;;;11.70;99.90;;;;;;5073782;28;20163;-74
2022/05/06 06:59:32;;;;;;;0.50;0.50;;;11.70;99.90;;;;;;5070455;28;20344;-74
2022/05/06 07:01:58;;;;;;;0.50;0.50;;;11.60;99.90;;;;;;5073619;28;20206;-73
2022/05/06 07:04:23;;;;;;;0.50;0.50;;;11.60;99.90;;;;;;5073553;28;20204;-76
2022/05/06 07:12:34;;;;;;;0.53;0.53;;;11.50;99.90;;;;;;5068701;28;20189;-74
2022/05/06 07:15:01;;;;;;;0.53;0.53;;;11.50;99.90;;;;;;5073414;28;20640;-75
2022/05/06 07:17:27;;;;;;;0.60;0.60;;;11.50;99.90;;;;;;5074141;28;20243;-75
2022/05/06 07:19:52;;;;;;;0.60;0.60;;;11.50;99.90;;;;;;5073619;28;20835;-74
2022/05/06 07:22:18;;;;;;;0.67;0.67;;;11.60;99.90;;;;;;5073984;28;20195;-74
2022/05/06 07:24:44;;;;;;;0.63;0.63;;;11.60;99.90;;;;;;5072917;28;20564;-75
2022/05/06 07:27:09;;;;;;;0.60;0.60;;;11.60;99.90;;;;;;5073615;28;20174;-74
2022/05/06 07:29:35;;;;;;;0.70;0.70;;;11.50;99.90;;;;;;5073123;28;20174;-75
2022/05/06 07:32:00;;;;;;;0.50;0.50;;;11.40;99.90;;;;;;5073503;28;20191;-75
2022/05/06 07:34:26;;;;;;;0.60;0.60;;;11.50;99.90;;;;;;5073981;28;20170;-76
2022/05/06 07:36:52;;;;;;;0.60;0.60;;;11.40;99.90;;;;;;5073801;28;20635;-74
2022/05/06 07:39:17;;;;;;;0.60;0.60;;;11.40;99.90;;;;;;5073176;28;20224;-73
2022/05/06 07:41:43;;;;;;;0.60;0.60;;;11.40;99.90;;;;;;5073325;28;20201;-75
2022/05/06 07:44:09;;;;;;;0.70;0.70;;;11.50;99.90;;;;;;5072482;28;20174;-75
2022/05/06 07:46:35;;;;;;;0.60;0.60;;;11.50;99.90;;;;;;5073430;28;20177;-77
2022/05/06 07:49:02;;;;;;;0.60;0.60;;;11.50;99.90;;;;;;5071969;28;20174;-74
2022/05/06 07:51:28;;;;;;;0.60;0.60;;;11.40;99.90;;;;;;5071474;28;20187;-73
2022/05/06 07:53:55;;;;;;;0.60;0.60;;;11.40;99.90;;;;;;5072833;28;20177;-74
2022/05/06 07:56:26;;;;;;;0.50;0.50;;;11.50;99.90;;;;;;5072926;28;20654;-75
2022/05/06 07:58:52;;;;;;;0.60;0.60;;;11.50;99.90;;;;;;5072103;28;20214;-77
2022/05/06 08:04:32;;;;;;;0.50;0.50;;;11.50;99.90;;;;;;5072682;28;20221;-74
2022/05/06 08:06:49;;;;;;;0.60;0.60;;;11.60;99.90;;;;;;5072862;28;20648;-74
2022/05/06 08:09:15;;;;;;;0.70;0.70;;;11.60;99.90;;;;;;5072266;28;20261;-74
2022/05/06 08:11:40;;;;;;;0.70;0.70;;;11.60;99.90;;;;;;5072469;28;20277;-74
2022/05/06 08:14:06;;;;;;;0.60;0.60;;;11.60;99.90;;;;;;5072133;28;20208;-74
2022/05/06 08:16:31;;;;;;;0.60;0.60;;;11.70;99.90;;;;;;5072584;28;20208;-75
2022/05/06 08:18:57;;;;;;;0.60;0.60;;;11.80;96.60;;;;;;5071461;28;20237;-74
2022/05/06 08:21:22;;;;;;;0.50;0.50;;;11.80;96.80;;;;;;5072154;28;20569;-74
2022/05/06 08:23:48;;;;;;;0.50;0.50;;;11.90;92.70;;;;;;5071981;28;20170;-76
2022/05/06 08:26:13;;;;;;;0.53;0.53;;;11.90;99.90;;;;;;5072203;28;20632;-75
2022/05/06 08:28:39;;;;;;;0.60;0.60;;;12.00;93.60;;;;;;5071947;28;20166;-75
2022/05/06 08:31:04;;;;;;;0.50;0.50;;;12.00;88.90;;;;;;5070896;28;20194;-76
2022/05/06 08:33:30;;;;;;;0.57;0.57;;;12.00;37.10;;;;;;5071634;28;20174;-74
2022/05/06 08:35:55;;;;;;;0.50;0.50;;;12.00;76.80;;;;;;5071354;28;20169;-75
2022/05/06 08:38:21;;;;;;;0.60;0.60;;;12.10;99.90;;;;;;5071314;28;20194;-76
2022/05/06 08:40:49;;;;;;;0.50;0.50;;;12.10;99.90;;;;;;5071355;28;20682;-75
2022/05/06 08:43:15;;;;;;;0.50;0.50;;;12.10;99.90;;;;;;5072176;28;20247;-74
2022/05/06 08:51:12;;;;;;;0.47;0.47;;;12.20;50.80;;;;;;5071742;28;20253;-74
2022/05/06 08:53:39;;;;;;;0.50;0.50;;;12.20;81.40;;;;;;5072235;28;20178;-74
2022/05/06 08:56:05;;;;;;;0.50;0.50;;;12.20;65.60;;;;;;5072260;28;20221;-75
2022/05/06 08:58:34;;;;;;;0.40;0.40;;;12.30;80.80;;;;;;5071970;28;20238;-75
2022/05/06 09:01:07;;;;;;;0.50;0.50;;;12.30;13.60;;;;;;5071388;28;20202;-73
2022/05/06 09:03:33;;;;;;;0.50;0.50;;;12.30;15.00;;;;;;5071854;28;20314;-73
2022/05/06 09:05:58;;;;;;;0.50;0.50;;;12.40;1.00;;;;;;5071977;28;20695;-73
2022/05/06 09:08:38;;;;;;;0.43;0.43;;;12.50;14.20;;;;;;5068528;28;20176;-74
2022/05/06 09:11:07;;;;;;;0.40;0.40;;;12.70;1.00;;;;;;5069708;28;20220;-73
2022/05/06 09:13:35;;;;;;;0.50;0.50;;;12.80;1.00;;;;;;5072015;28;20182;-74
2022/05/06 09:19:11;;;;;;;0.50;0.50;;;13.00;1.00;;;;;;5071424;28;20255;-75
2022/05/06 09:21:39;;;;;;;0.50;0.50;;;13.10;1.00;;;;;;5063194;28;20210;-74
2022/05/06 09:24:20;;;;;;;0.50;0.50;;;13.10;1.00;;;;;;5068000;28;20205;-74
2022/05/06 09:27:09;;;;;;;0.50;0.50;;;13.20;1.00;;;;;;5070816;28;20181;-74
2022/05/06 09:29:39;;;;;;;0.50;0.50;;;13.30;1.00;;;;;;5071265;28;20665;-74
2022/05/06 09:32:14;;;;;;;0.50;0.50;;;13.30;1.00;;;;;;5071647;28;20544;-74
2022/05/06 09:34:41;;;;;;;0.50;0.50;;;13.40;1.00;;;;;;5071320;28;20186;-74
2022/05/06 09:37:07;;;;;;;0.50;0.50;;;13.60;1.00;;;;;;5071156;28;20162;-74
2022/05/06 09:39:33;;;;;;;0.40;0.40;;;14.00;99.90;;;;;;5070568;28;20241;-74
2022/05/06 09:42:04;;;;;;;0.50;0.50;;;14.30;99.90;;;;;;5069103;28;20236;-74
2022/05/06 09:44:30;;;;;;;0.40;0.40;;;14.50;99.90;;;;;;5071307;28;20553;-74
2022/05/06 09:47:12;;;;;;;0.50;0.50;;;14.60;99.90;;;;;;5072032;28;20178;-76
2022/05/06 09:49:42;;;;;;;0.40;0.40;;;14.60;1.00;;;;;;5075590;28;20247;-74
2022/05/06 09:52:15;;;;;;;0.40;0.40;;;14.80;1.00;;;;;;5075644;28;20198;-75
2022/05/06 09:54:41;;;;;;;0.43;0.43;;;15.20;1.00;;;;;;5075676;28;20190;-75
2022/05/06 09:57:08;;;;;;;0.40;0.40;;;15.70;1.00;;;;;;5075336;28;20654;-76
2022/05/06 09:59:35;;;;;;;0.40;0.40;;;15.60;99.90;;;;;;5066031;28;20202;-75
2022/05/06 10:02:00;;;;;;;0.40;0.40;;;15.50;1.00;;;;;;5067827;28;20210;-74
2022/05/06 10:04:27;;;;;;;0.40;0.40;;;15.50;1.00;;;;;;5072338;28;20189;-76
2022/05/06 10:06:56;;;;;;;0.50;0.50;;;15.80;1.00;;;;;;5076054;28;20178;-75
2022/05/06 10:09:22;;;;;;;0.40;0.40;;;16.10;1.00;;;;;;5073759;28;20239;-74
2022/05/06 10:11:51;;;;;;;0.40;0.40;;;16.20;1.00;;;;;;5070709;28;20551;-73
2022/05/06 10:14:17;;;;;;;0.40;0.40;;;16.50;1.00;;;;;;5076468;28;20189;-75
2022/05/06 10:16:42;;;;;;;0.43;0.43;;;16.90;1.00;;;;;;5072408;28;20178;-74
2022/05/06 10:19:44;;;;;;;0.40;0.40;;;17.00;99.90;;;;;;5072120;28;20198;-74
2022/05/06 10:22:10;;;;;;;0.50;0.50;;;16.90;99.90;;;;;;5072310;28;20225;-79
2022/05/06 10:24:49;;;;;;;0.40;0.40;;;17.00;99.90;;;;;;5071874;28;20170;-77
2022/05/06 10:33:14;;;;;;;0.30;0.30;;;16.70;99.90;;;;;;5073357;28;20205;-74
2022/05/06 10:35:44;;;;;;;0.40;0.40;;;16.80;99.90;;;;;;5072875;28;20262;-74
2022/05/06 10:38:17;;;;;;;0.40;0.40;;;17.40;99.90;;;;;;5073055;28;20230;-75
2022/05/06 10:40:57;;;;;;;0.40;0.40;;;17.90;1.00;;;;;;5071963;28;20206;-77
2022/05/06 10:43:41;;;;;;;0.40;0.40;;;18.20;1.00;;;;;;5072577;28;20189;-74
2022/05/06 10:46:09;;;;;;;0.40;0.40;;;18.30;1.00;;;;;;5072294;28;20182;-75
2022/05/06 10:48:35;;;;;;;0.40;0.40;;;18.40;1.00;;;;;;5072948;28;20178;-76
2022/05/06 10:51:24;;;;;;;0.40;0.40;;;18.30;1.00;;;;;;5072066;28;20292;-75
2022/05/06 10:53:50;;;;;;;0.40;0.40;;;18.40;1.00;;;;;;5071741;28;20674;-75
2022/05/06 10:56:16;;;;;;;0.40;0.40;;;18.50;1.00;;;;;;5072254;28;20639;-75
2022/05/06 10:58:42;;;;;;;0.40;0.40;;;18.80;1.00;;;;;;5071628;28;20770;-78
2022/05/06 11:01:15;;;;;;;0.40;0.40;;;18.80;1.00;;;;;;5071372;28;20352;-74
2022/05/06 11:03:54;;;;;;;0.40;0.40;;;19.10;1.00;;;;;;5072447;28;20175;-76
2022/05/06 11:06:23;;;;;;;0.37;0.37;;;19.20;1.00;;;;;;5072283;28;20174;-74
2022/05/06 11:08:49;;;;;;;0.50;0.50;;;19.10;1.00;;;;;;5073423;28;20182;-73
2022/05/06 11:11:17;;;;;;;0.47;0.47;;;18.80;1.00;;;;;;5072301;28;20190;-75
2022/05/06 11:13:45;;;;;;;0.40;0.40;;;18.60;1.00;;;;;;5072011;28;20189;-73
2022/05/06 11:16:12;;;;;;;0.40;0.40;;;18.80;1.00;;;;;;5072008;28;20179;-73
2022/05/06 11:18:45;;;;;;;0.47;0.47;;;19.10;1.00;;;;;;5071545;28;20243;-74
2022/05/06 11:21:31;;;;;;;0.50;0.50;;;19.00;1.00;;;;;;5071679;28;20202;-75
2022/05/06 11:23:57;;;;;;;0.40;0.40;;;19.00;1.00;;;;;;5072286;28;20490;-73
2022/05/06 11:26:24;;;;;;;0.40;0.40;;;19.40;1.00;;;;;;5071549;28;20727;-75
2022/05/06 11:29:01;;;;;;;0.47;0.47;;;19.60;1.00;;;;;;5071755;28;20202;-75
2022/05/06 11:31:27;;;;;;;0.50;0.50;;;19.40;1.00;;;;;;5070506;28;20194;-74
2022/05/06 11:34:02;;;;;;;0.50;0.50;;;19.10;1.00;;;;;;5069882;28;20194;-75
2022/05/06 11:36:28;;;;;;;0.30;0.30;;;18.60;1.00;;;;;;5053756;28;20262;-74
2022/05/06 11:38:54;;;;;;;0.50;0.50;;;18.50;1.00;;;;;;5053150;28;20344;-74
2022/05/06 11:41:20;;;;;;;0.30;0.30;;;18.60;1.00;;;;;;5053992;28;20192;-74
2022/05/06 11:43:47;;;;;;;0.33;0.33;;;18.50;1.00;;;;;;5053339;28;20175;-74
2022/05/06 11:49:07;;;;;;;0.40;0.40;;;18.10;1.00;;;;;;5053624;28;20178;-73
2022/05/06 11:51:43;;;;;;;0.40;0.40;;;18.00;1.00;;;;;;5053365;28;20241;-76
2022/05/06 11:54:09;;;;;;;0.40;0.40;;;18.20;1.00;;;;;;5061891;28;20178;-74
2022/05/06 11:56:36;;;;;;;0.40;0.40;;;17.90;1.00;;;;;;5072813;28;20178;-73
2022/05/06 11:59:02;;;;;;;0.40;0.40;;;18.10;1.00;;;;;;5072345;28;20206;-75
2022/05/06 12:01:29;;;;;;;0.40;0.40;;;18.30;1.00;;;;;;5072572;28;20210;-74
2022/05/06 12:04:06;;;;;;;0.40;0.40;;;18.10;1.00;;;;;;5072637;28;20628;-73
2022/05/06 12:06:32;;;;;;;0.40;0.40;;;18.00;1.00;;;;;;5071044;28;20170;-73
2022/05/06 12:09:09;;;;;;;0.40;0.40;;;17.80;1.00;;;;;;5071950;28;20247;-73
2022/05/06 12:11:35;;;;;;;0.40;0.40;;;17.80;1.00;;;;;;5071143;28;20745;-74
2022/05/06 12:14:08;;;;;;;0.40;0.40;;;17.90;1.00;;;;;;5072577;28;20261;-73
2022/05/06 12:16:34;;;;;;;0.40;0.40;;;18.00;1.00;;;;;;5072495;28;20221;-73
2022/05/06 12:19:00;;;;;;;0.40;0.40;;;17.90;1.00;;;;;;5071714;28;20659;-74
2022/05/06 12:21:27;;;;;;;0.50;0.50;;;18.00;1.00;;;;;;5071954;28;20182;-73
2022/05/06 12:24:02;;;;;;;0.43;0.43;;;18.00;1.00;;;;;;5072422;28;20254;-74
2022/05/06 12:26:33;;;;;;;0.40;0.40;;;17.70;1.00;;;;;;5072440;28;20169;-75
2022/05/06 12:29:00;;;;;;;0.40;0.40;;;17.50;1.00;;;;;;5069113;28;20678;-75
2022/05/06 12:31:31;;;;;;;0.40;0.40;;;17.90;1.00;;;;;;5072044;28;20249;-75
2022/05/06 12:34:07;;;;;;;0.40;0.40;;;18.20;1.00;;;;;;5071837;28;20171;-75
2022/05/06 12:36:33;;;;;;;0.40;0.40;;;18.50;1.00;;;;;;5072006;28;20197;-77
2022/05/06 12:38:59;;;;;;;0.50;0.50;;;18.70;1.00;;;;;;5071668;28;20543;-75
2022/05/06 12:41:27;;;;;;;0.40;0.40;;;18.60;1.00;;;;;;5071792;28;20197;-75
2022/05/06 12:43:57;;;;;;;0.50;0.50;;;18.70;1.00;;;;;;5071725;28;20594;-75
2022/05/06 12:46:28;;;;;;;0.40;0.40;;;18.70;1.00;;;;;;5069577;28;20661;-76
2022/05/06 12:51:43;;;;;;;0.30;0.30;;;18.50;1.00;;;;;;5069551;28;20201;-74
2022/05/06 12:54:10;;;;;;;0.40;0.40;;;18.10;1.00;;;;;;5071620;28;20213;-74
2022/05/06 12:56:37;;;;;;;0.40;0.40;;;18.00;1.00;;;;;;5071471;28;20182;-75
2022/05/06 12:59:03;;;;;;;0.47;0.47;;;18.00;1.00;;;;;;5071114;28;20209;-75
2022/05/06 13:01:29;;;;;;;0.50;0.50;;;18.00;1.00;;;;;;5071703;28;20589;-74
2022/05/06 13:03:55;;;;;;;0.40;0.40;;;18.00;1.00;;;;;;5072177;28;20674;-74
2022/05/06 13:06:20;;;;;;;0.40;0.40;;;18.30;1.00;;;;;;5072160;28;20171;-76
2022/05/06 13:08:46;;;;;;;0.40;0.40;;;18.40;1.00;;;;;;5071970;28;20179;-74
2022/05/06 13:11:11;;;;;;;0.40;0.40;;;18.50;1.00;;;;;;5071914;28;20277;-76
2022/05/06 13:13:37;;;;;;;0.40;0.40;;;18.50;1.00;;;;;;5071545;28;20178;-74
2022/05/06 13:16:03;;;;;;;0.40;0.40;;;18.60;1.00;;;;;;5071852;28;20170;-74
2022/05/06 13:18:30;;;;;;;0.47;0.47;;;18.60;1.00;;;;;;5071609;28;20224;-74
2022/05/06 13:20:56;;;;;;;0.40;0.40;;;18.40;1.00;;;;;;5070870;28;20190;-74
2022/05/06 13:23:21;;;;;;;0.40;0.40;;;18.40;1.00;;;;;;5071676;28;20271;-74
2022/05/06 13:25:48;;;;;;;0.43;0.43;;;18.50;1.00;;;;;;5071955;28;20588;-74
2022/05/06 13:28:14;;;;;;;0.40;0.40;;;18.40;1.00;;;;;;5071793;28;20587;-74
2022/05/06 13:30:40;;;;;;;0.40;0.40;;;18.50;1.00;;;;;;5071688;28;20218;-74
2022/05/06 13:33:06;;;;;;;0.33;0.33;;;18.40;1.00;;;;;;5066311;28;20266;-74
2022/05/06 13:35:31;;;;;;;0.40;0.40;;;18.30;1.00;;;;;;5071585;28;20166;-73
2022/05/06 13:37:58;;;;;;;0.40;0.40;;;18.50;1.00;;;;;;5071867;28;20185;-74
2022/05/06 13:40:24;;;;;;;0.40;0.40;;;18.50;1.00;;;;;;5068005;28;20189;-75